createdAt,value
2023-01-03T00:02:27.277Z,97708.06
2023-01-03T00:04:55.002Z,97703.19
2023-01-03T00:07:34.759Z,97696.28
2023-01-03T00:10:06.303Z,97705.78
2023-01-03T00:12:33.841Z,97708.41
2023-01-03T00:15:01.974Z,97714.59
2023-01-03T00:17:29.574Z,97726.19
2023-01-03T00:19:57.080Z,97721.97
2023-01-03T00:22:24.596Z,97716.88
2023-01-03T00:24:53.946Z,97714.59
2023-01-03T00:27:22.836Z,97724.22
2023-01-03T00:29:50.709Z,97729.63
2023-01-03T00:32:18.300Z,97725.34
2023-01-03T00:34:47.086Z,97719.47
2023-01-03T00:37:15.804Z,97712.78
2023-01-03T00:39:44.748Z,97730.09
2023-01-03T00:42:12.595Z,97734.47
2023-01-03T00:44:41.743Z,97728.44
2023-01-03T00:47:09.420Z,97731.06
2023-01-03T00:49:37.073Z,97726.31
2023-01-03T00:52:04.881Z,97742.00
2023-01-03T00:54:32.373Z,97742.94
2023-01-03T00:56:59.897Z,97738.72
2023-01-03T00:59:27.601Z,97730.22
2023-01-03T01:01:58.686Z,97722.72
2023-01-03T01:04:29.005Z,97726.28
2023-01-03T01:06:58.833Z,97728.25
2023-01-03T01:09:28.458Z,97727.56
2023-01-03T01:11:56.698Z,97736.25
2023-01-03T01:14:26.406Z,97741.63
2023-01-03T01:16:56.957Z,97740.97
2023-01-03T01:19:26.772Z,97741.13
2023-01-03T01:21:54.950Z,97738.66
2023-01-03T01:24:23.093Z,97741.25
2023-01-03T01:26:51.281Z,97731.13
2023-01-03T01:29:19.543Z,97732.13
2023-01-03T01:31:48.312Z,97735.69
2023-01-03T01:34:17.769Z,97740.13
2023-01-03T01:36:46.847Z,97747.28
2023-01-03T01:39:16.412Z,97748.09
2023-01-03T01:42:03.054Z,97744.81
2023-01-03T01:44:54.128Z,97748.28
2023-01-03T01:47:28.422Z,97743.50
2023-01-03T01:50:02.307Z,97745.78
2023-01-03T01:52:31.331Z,97735.66
2023-01-03T01:55:00.595Z,97744.75
2023-01-03T01:57:28.285Z,97748.66
2023-01-03T01:59:55.777Z,97755.81
2023-01-03T02:02:24.815Z,97754.63
2023-01-03T02:04:55.089Z,97750.22
2023-01-03T02:07:24.303Z,97754.91
2023-01-03T02:09:56.245Z,97751.94
2023-01-03T02:12:48.964Z,97745.53
2023-01-03T02:15:26.253Z,97739.00
2023-01-03T02:18:12.295Z,97733.44
2023-01-03T02:21:00.127Z,97742.53
2023-01-03T02:24:13.161Z,97742.03
2023-01-03T02:26:56.310Z,97746.06
2023-01-03T02:29:55.697Z,97755.81
2023-01-03T02:32:37.696Z,97752.25
2023-01-03T02:35:09.813Z,97755.50
2023-01-03T02:37:43.261Z,97762.25
2023-01-03T02:40:19.194Z,97756.03
2023-01-03T02:43:01.984Z,97756.84
2023-01-03T02:45:46.960Z,97747.25
2023-01-03T02:48:20.073Z,97752.75
2023-01-03T02:50:50.259Z,97752.41
2023-01-03T02:53:25.946Z,97754.47
2023-01-03T02:55:59.621Z,97758.88
2023-01-03T02:58:31.353Z,97771.13
2023-01-03T03:01:00.252Z,97767.66
2023-01-03T03:03:34.017Z,97757.09
2023-01-03T03:06:08.790Z,97759.41
2023-01-03T03:08:36.519Z,97758.28
2023-01-03T03:11:21.989Z,97756.34
2023-01-03T03:13:53.846Z,97765.94
2023-01-03T03:16:43.544Z,97765.00
2023-01-03T03:19:48.342Z,97759.31
2023-01-03T03:22:41.281Z,97764.53
2023-01-03T03:25:12.861Z,97761.78
2023-01-03T03:28:00.923Z,97760.13
2023-01-03T03:30:31.403Z,97755.88
2023-01-03T03:33:05.626Z,97755.88
2023-01-03T03:35:42.703Z,97764.38
2023-01-03T03:38:14.299Z,97758.19
2023-01-03T03:41:06.498Z,97760.13
2023-01-03T03:43:59.161Z,97764.53
2023-01-03T03:46:34.213Z,97753.28
2023-01-03T03:49:24.661Z,97757.69
2023-01-03T03:51:56.806Z,97761.91
2023-01-03T03:54:26.837Z,97762.06
2023-01-03T03:57:01.587Z,97764.84
2023-01-03T03:59:31.994Z,97761.56
2023-01-03T04:02:03.071Z,97765.78
2023-01-03T04:04:36.459Z,97765.00
2023-01-03T04:07:05.766Z,97758.78
2023-01-03T04:09:33.482Z,97752.63
2023-01-03T04:12:00.983Z,97759.63
2023-01-03T04:14:28.496Z,97758.78
2023-01-03T04:16:56.039Z,97764.00
2023-01-03T04:19:23.567Z,97768.56
2023-01-03T04:21:51.061Z,97778.34
2023-01-03T04:24:22.185Z,97777.34
2023-01-03T04:26:49.761Z,97786.16
2023-01-03T04:29:17.796Z,97787.78
2023-01-03T04:31:45.522Z,97769.41
2023-01-03T04:34:13.165Z,97786.53
2023-01-03T04:36:40.703Z,97781.31
2023-01-03T04:39:08.223Z,97787.34
2023-01-03T04:41:37.067Z,97789.13
2023-01-03T04:44:04.620Z,97779.38
2023-01-03T04:46:34.056Z,97782.94
2023-01-03T04:49:01.971Z,97780.31
2023-01-03T04:51:29.769Z,97780.31
2023-01-03T04:53:57.688Z,97790.75
2023-01-03T04:56:26.285Z,97786.53
2023-01-03T04:58:55.426Z,97783.09
2023-01-03T05:01:23.655Z,97796.97
2023-01-03T05:03:51.999Z,97796.97
2023-01-03T05:06:19.730Z,97798.75
2023-01-03T05:08:48.301Z,97797.09
2023-01-03T05:11:15.783Z,97799.72
2023-01-03T05:13:43.779Z,97799.84
2023-01-03T05:16:14.559Z,97797.25
2023-01-03T05:18:42.986Z,97801.81
2023-01-03T05:21:32.821Z,97804.44
2023-01-03T05:24:18.113Z,97809.78
2023-01-03T05:26:46.059Z,97819.84
2023-01-03T05:29:16.388Z,97820.28
2023-01-03T05:31:45.319Z,97822.91
2023-01-03T05:34:13.051Z,97824.78
2023-01-03T05:36:40.623Z,97830.84
2023-01-03T05:39:08.260Z,97827.72
2023-01-03T05:41:53.325Z,97810.88
2023-01-03T05:44:20.798Z,97815.84
2023-01-03T05:46:49.772Z,97825.25
2023-01-03T05:49:17.534Z,97822.78
2023-01-03T05:51:45.119Z,97821.69
2023-01-03T05:54:15.453Z,97815.94
2023-01-03T05:56:43.130Z,97809.38
2023-01-03T05:59:11.292Z,97816.84
2023-01-03T06:01:39.102Z,97813.03
2023-01-03T06:04:11.070Z,97833.38
2023-01-03T06:06:38.642Z,97837.22
2023-01-03T06:09:08.743Z,97839.00
2023-01-03T06:11:36.300Z,97839.66
2023-01-03T06:17:37.194Z,97851.41
2023-01-03T06:20:07.119Z,97851.91
2023-01-03T06:22:35.416Z,97848.63
2023-01-03T06:25:03.044Z,97845.34
2023-01-03T06:27:30.693Z,97847.56
2023-01-03T06:29:58.285Z,97850.63
2023-01-03T06:32:25.886Z,97863.13
2023-01-03T06:34:53.425Z,97859.69
2023-01-03T06:37:22.310Z,97860.81
2023-01-03T06:39:49.874Z,97855.91
2023-01-03T06:42:35.108Z,97859.47
2023-01-03T06:45:20.215Z,97860.44
2023-01-03T06:48:05.405Z,97858.91
2023-01-03T06:50:50.708Z,97858.09
2023-01-03T06:53:22.012Z,97861.38
2023-01-03T06:55:56.336Z,97863.03
2023-01-03T06:58:24.770Z,97864.66
2023-01-03T07:00:53.145Z,97871.53
2023-01-03T07:03:20.619Z,97873.16
2023-01-03T07:05:48.147Z,97870.56
2023-01-03T07:08:15.666Z,97873.31
2023-01-03T07:10:44.619Z,97875.41
2023-01-03T07:13:29.964Z,97889.38
2023-01-03T07:15:57.519Z,97886.91
2023-01-03T07:18:26.176Z,97888.56
2023-01-03T07:20:53.689Z,97886.09
2023-01-03T07:23:21.646Z,97882.00
2023-01-03T07:25:50.498Z,97887.63
2023-01-03T07:28:18.052Z,97888.44
2023-01-03T07:30:46.879Z,97894.34
2023-01-03T07:33:16.582Z,97897.75
2023-01-03T07:35:44.152Z,97893.41
2023-01-03T07:38:13.702Z,97900.09
2023-01-03T07:40:41.468Z,97902.53
2023-01-03T07:43:29.675Z,97905.81
2023-01-03T07:45:57.350Z,97910.22
2023-01-03T07:48:24.883Z,97908.59
2023-01-03T07:50:57.902Z,97905.00
2023-01-03T07:53:25.728Z,97910.22
2023-01-03T07:55:53.236Z,97910.75
2023-01-03T07:58:22.055Z,97906.22
2023-01-03T08:00:49.555Z,97909.66
2023-01-03T08:03:17.144Z,97914.03
2023-01-03T08:05:44.725Z,97923.13
2023-01-03T08:08:12.505Z,97925.84
2023-01-03T08:10:57.829Z,97932.19
2023-01-03T08:13:26.747Z,97937.09
2023-01-03T08:15:56.286Z,97926.41
2023-01-03T08:18:25.411Z,97926.25
2023-01-03T08:20:55.120Z,97924.16
2023-01-03T08:23:22.672Z,97927.44
2023-01-03T08:25:50.183Z,97932.41
2023-01-03T08:28:18.023Z,97938.94
2023-01-03T08:30:50.411Z,97941.94
2023-01-03T08:33:20.633Z,97935.63
2023-01-03T08:35:51.889Z,97938.59
2023-01-03T08:38:22.902Z,97938.16
2023-01-03T08:40:50.565Z,97938.03
2023-01-03T08:43:18.811Z,97940.94
2023-01-03T08:45:49.010Z,97942.19
2023-01-03T08:48:20.480Z,97947.09
2023-01-03T08:50:48.572Z,97940.09
2023-01-03T08:53:16.260Z,97941.63
2023-01-03T08:55:44.244Z,97933.50
2023-01-03T08:58:11.854Z,97941.00
2023-01-03T09:00:40.012Z,97939.91
2023-01-03T09:03:09.011Z,97941.69
2023-01-03T09:05:37.706Z,97948.69
2023-01-03T09:08:05.550Z,97949.50
2023-01-03T09:10:33.221Z,97962.41
2023-01-03T09:13:02.298Z,97970.78
2023-01-03T09:15:29.922Z,97970.47
2023-01-03T09:17:57.442Z,97964.31
2023-01-03T09:20:26.438Z,97957.81
2023-01-03T09:22:53.996Z,97962.63
2023-01-03T09:25:21.537Z,97968.22
2023-01-03T09:27:49.704Z,97967.78
2023-01-03T09:30:19.803Z,97969.00
2023-01-03T09:32:50.279Z,97965.41
2023-01-03T09:35:18.255Z,97972.91
2023-01-03T09:37:49.273Z,97972.13
2023-01-03T09:40:17.959Z,97969.81
2023-01-03T09:43:03.625Z,97974.03
2023-01-03T09:45:34.286Z,97968.81
2023-01-03T09:48:04.154Z,97962.66
2023-01-03T09:50:57.285Z,97966.88
2023-01-03T09:53:50.379Z,97961.97
2023-01-03T09:56:35.728Z,97964.28
2023-01-03T09:59:38.002Z,97966.31
2023-01-03T10:02:45.533Z,97969.16
2023-01-03T10:05:36.372Z,97967.88
2023-01-03T10:08:30.686Z,97968.41
2023-01-03T10:11:05.030Z,97979.81
2023-01-03T10:13:44.272Z,97979.53
2023-01-03T10:16:17.434Z,97982.50
2023-01-03T10:19:04.478Z,97981.25
2023-01-03T10:21:39.806Z,97979.00
2023-01-03T10:24:19.102Z,97983.91
2023-01-03T10:26:48.879Z,97971.53
2023-01-03T10:29:19.064Z,97974.81
2023-01-03T10:32:04.195Z,97966.38
2023-01-03T10:34:32.021Z,97964.78
2023-01-03T10:37:16.578Z,97969.41
2023-01-03T10:39:45.846Z,97968.81
2023-01-03T10:42:18.282Z,97974.56
2023-01-03T10:44:58.688Z,97961.84
2023-01-03T10:47:27.500Z,97962.38
2023-01-03T10:50:00.566Z,97964.00
2023-01-03T10:52:32.815Z,97969.75
2023-01-03T10:55:04.172Z,97965.88
2023-01-03T10:57:43.399Z,97960.84
2023-01-03T11:00:23.685Z,97951.41
2023-01-03T11:02:52.038Z,97951.28
2023-01-03T11:05:21.594Z,97956.75
2023-01-03T11:07:55.105Z,97948.25
2023-01-03T11:10:25.579Z,97958.63
2023-01-03T11:12:53.132Z,97957.19
2023-01-03T11:15:37.837Z,97953.94
2023-01-03T11:18:16.128Z,97942.53
2023-01-03T11:20:50.187Z,97936.03
2023-01-03T11:23:26.630Z,97937.53
2023-01-03T11:26:04.849Z,97938.88
2023-01-03T11:29:03.545Z,97934.16
2023-01-03T11:31:41.162Z,97928.59
2023-01-03T11:34:24.939Z,97932.38
2023-01-03T11:37:00.187Z,97928.13
2023-01-03T11:39:52.114Z,97928.78
2023-01-03T11:42:37.122Z,97925.00
2023-01-03T11:45:27.577Z,97921.72
2023-01-03T11:48:06.966Z,97912.72
2023-01-03T11:50:50.133Z,97911.72
2023-01-03T11:53:29.433Z,97910.56
2023-01-03T11:56:08.103Z,97905.28
2023-01-03T11:58:57.974Z,97911.47
2023-01-03T12:01:41.602Z,97907.03
2023-01-03T12:04:28.337Z,97914.69
2023-01-03T12:07:46.504Z,97914.34
2023-01-03T12:10:10.139Z,97915.56
2023-01-03T12:13:17.536Z,97918.16
2023-01-03T12:15:51.203Z,97919.09
2023-01-03T12:18:29.817Z,97921.69
2023-01-03T12:21:05.297Z,97919.69
2023-01-03T12:23:42.715Z,97918.75
2023-01-03T12:26:13.416Z,97921.38
2023-01-03T12:28:43.108Z,97919.75
2023-01-03T12:31:29.495Z,97912.22
2023-01-03T12:34:06.868Z,97911.22
2023-01-03T12:36:42.102Z,97906.31
2023-01-03T12:39:33.492Z,97907.81
2023-01-03T12:42:06.509Z,97904.91
2023-01-03T12:44:39.428Z,97905.44
2023-01-03T12:47:18.249Z,97905.09
2023-01-03T12:49:51.894Z,97907.72
2023-01-03T12:52:22.382Z,97913.34
2023-01-03T12:54:56.863Z,97909.56
2023-01-03T12:57:56.903Z,97904.19
2023-01-03T13:00:40.789Z,97897.34
2023-01-03T13:03:19.732Z,97896.56
2023-01-03T13:05:50.986Z,97891.34
2023-01-03T13:08:27.573Z,97900.72
2023-01-03T13:10:57.522Z,97892.72
2023-01-03T13:13:25.122Z,97892.22
2023-01-03T13:15:54.635Z,97897.81
2023-01-03T13:18:38.899Z,97893.72
2023-01-03T13:21:39.918Z,97892.28
2023-01-03T13:24:08.434Z,97894.72
2023-01-03T13:26:36.026Z,97890.94
2023-01-03T13:29:43.753Z,97885.72
2023-01-03T13:32:17.600Z,97886.06
2023-01-03T13:35:36.197Z,97879.81
2023-01-03T13:38:24.973Z,97880.31
2023-01-03T13:43:46.645Z,97874.06
2023-01-03T13:46:27.680Z,97865.69
2023-01-03T13:48:58.937Z,97865.38
2023-01-03T13:51:48.865Z,97862.09
2023-01-03T13:54:55.851Z,97871.13
2023-01-03T13:57:35.987Z,97866.53
2023-01-03T14:00:10.932Z,97862.44
2023-01-03T14:03:09.281Z,97868.66
2023-01-03T14:05:58.090Z,97870.47
2023-01-03T14:08:36.654Z,97878.16
2023-01-03T14:11:27.889Z,97872.91
2023-01-03T14:14:00.392Z,97881.75
2023-01-03T14:16:31.463Z,97885.03
2023-01-03T14:19:04.653Z,97874.56
2023-01-03T14:21:46.081Z,97870.28
2023-01-03T14:24:19.601Z,97868.81
2023-01-03T14:26:49.259Z,97870.97
2023-01-03T14:29:20.568Z,97873.59
2023-01-03T14:31:50.536Z,97872.94
2023-01-03T14:34:31.357Z,97882.78
2023-01-03T14:37:04.831Z,97883.09
2023-01-03T14:42:05.359Z,97885.09
2023-01-03T14:44:34.056Z,97881.47
2023-01-03T14:47:04.809Z,97881.66
2023-01-03T14:49:41.505Z,97878.53
2023-01-03T14:52:14.885Z,97884.13
2023-01-03T14:54:45.793Z,97887.69
2023-01-03T14:57:20.488Z,97885.22
2023-01-03T14:59:49.589Z,97895.25
2023-01-03T15:02:19.077Z,97897.19
2023-01-03T15:04:53.365Z,97900.13
2023-01-03T15:07:33.793Z,97903.09
2023-01-03T15:10:18.029Z,97903.41
2023-01-03T15:12:49.504Z,97904.53
2023-01-03T15:15:23.873Z,97903.41
2023-01-03T15:17:54.330Z,97911.56
2023-01-03T15:20:28.524Z,97912.22
2023-01-03T15:22:56.522Z,97908.44
2023-01-03T15:25:33.733Z,97901.91
2023-01-03T15:28:15.351Z,97911.38
2023-01-03T15:30:49.418Z,97915.44
2023-01-03T15:33:24.761Z,97913.50
2023-01-03T15:35:55.288Z,97908.22
2023-01-03T15:38:29.465Z,97917.69
2023-01-03T15:40:57.160Z,97911.13
2023-01-03T15:43:33.130Z,97904.53
2023-01-03T15:46:04.214Z,97916.41
2023-01-03T15:48:35.041Z,97918.78
2023-01-03T15:51:03.735Z,97918.66
2023-01-03T15:53:39.145Z,97923.66
2023-01-03T15:56:18.694Z,97922.72
2023-01-03T15:58:49.195Z,97935.63
2023-01-03T16:01:17.867Z,97931.25
2023-01-03T16:03:45.989Z,97925.59
2023-01-03T16:06:13.535Z,97926.13
2023-01-03T16:08:42.492Z,97932.81
2023-01-03T16:11:18.438Z,97930.22
2023-01-03T16:13:52.447Z,97935.38
2023-01-03T16:16:24.403Z,97932.69
2023-01-03T16:18:52.401Z,97937.50
2023-01-03T16:21:20.738Z,97938.59
2023-01-03T16:23:48.302Z,97944.56
2023-01-03T16:26:16.706Z,97945.25
2023-01-03T16:28:44.343Z,97950.38
2023-01-03T16:31:15.741Z,97944.66
2023-01-03T16:33:44.572Z,97945.13
2023-01-03T16:36:33.202Z,97946.94
2023-01-03T16:39:01.049Z,97953.81
2023-01-03T16:41:28.710Z,97952.03
2023-01-03T16:43:56.521Z,97954.38
2023-01-03T16:46:27.178Z,97967.13
2023-01-03T16:48:57.251Z,97958.63
2023-01-03T16:51:28.169Z,97956.97
2023-01-03T16:53:58.038Z,97957.81
2023-01-03T16:56:25.892Z,97964.78
2023-01-03T16:58:54.005Z,97974.53
2023-01-03T17:01:21.670Z,97961.91
2023-01-03T17:03:50.797Z,97974.53
2023-01-03T17:06:35.065Z,97973.44
2023-01-03T17:09:07.747Z,97977.69
2023-01-03T17:11:35.511Z,97977.41
2023-01-03T17:14:04.542Z,97976.97
2023-01-03T17:16:32.782Z,97964.38
2023-01-03T17:19:01.801Z,97979.47
2023-01-03T17:21:31.357Z,97980.41
2023-01-03T17:24:01.579Z,97977.41
2023-01-03T17:26:32.312Z,97987.34
2023-01-03T17:29:01.930Z,97993.34
2023-01-03T17:31:29.931Z,97979.91
2023-01-03T17:33:57.477Z,97987.03
2023-01-03T17:36:28.759Z,97992.22
2023-01-03T17:39:00.055Z,97991.66
2023-01-03T17:41:28.591Z,97987.13
2023-01-03T17:43:56.290Z,97976.56
2023-01-03T17:46:42.814Z,97980.25
2023-01-03T17:49:26.124Z,97974.38
2023-01-03T17:51:58.049Z,97985.34
2023-01-03T17:54:29.518Z,97987.94
2023-01-03T17:56:58.411Z,97991.47
2023-01-03T17:59:26.253Z,97982.28
2023-01-03T18:01:54.682Z,97982.13
2023-01-03T18:04:22.571Z,97986.47
2023-01-03T18:06:56.730Z,97992.06
2023-01-03T18:09:26.638Z,97989.59
2023-01-03T18:11:54.450Z,97990.78
2023-01-03T18:14:22.170Z,97981.63
2023-01-03T18:16:54.894Z,97991.06
2023-01-03T18:19:22.781Z,97986.56
2023-01-03T18:21:50.572Z,97993.41
2023-01-03T18:24:22.824Z,97998.34
2023-01-03T18:26:54.385Z,97987.97
2023-01-03T18:29:21.880Z,97978.63
2023-01-03T18:31:49.711Z,97972.88
2023-01-03T18:34:17.276Z,97970.53
2023-01-03T18:36:48.338Z,97969.84
2023-01-03T18:39:17.944Z,97971.75
2023-01-03T18:41:46.818Z,97963.00
2023-01-03T18:44:20.308Z,97961.34
2023-01-03T18:46:48.487Z,97963.94
2023-01-03T18:49:16.096Z,97961.34
2023-01-03T18:51:44.028Z,97964.34
2023-01-03T18:54:17.384Z,97961.88
2023-01-03T18:56:45.248Z,97960.22
2023-01-03T18:59:19.636Z,97963.09
2023-01-03T19:01:47.361Z,97965.69
2023-01-03T19:04:14.988Z,97968.41
2023-01-03T19:06:45.305Z,97972.78
2023-01-03T19:09:20.795Z,97968.53
2023-01-03T19:11:49.455Z,97969.50
2023-01-03T19:14:18.447Z,97973.72
2023-01-03T19:16:45.959Z,97972.53
2023-01-03T19:19:13.539Z,97967.09
2023-01-03T19:21:42.681Z,97976.25
2023-01-03T19:24:22.347Z,97979.53
2023-01-03T19:26:53.801Z,97979.41
2023-01-03T19:29:25.161Z,97979.28
2023-01-03T19:31:56.107Z,97983.66
2023-01-03T19:34:25.458Z,97973.13
2023-01-03T19:36:53.474Z,97974.63
2023-01-03T19:39:35.247Z,97972.88
2023-01-03T19:42:51.574Z,97971.22
2023-01-03T19:49:10.401Z,97983.09
2023-01-03T19:54:30.101Z,97984.38
2023-01-03T19:57:03.095Z,97982.28
2023-01-03T19:59:34.800Z,97981.16
2023-01-03T20:02:24.383Z,97978.09
2023-01-03T20:04:55.040Z,97982.97
2023-01-03T20:07:24.253Z,97973.94
2023-01-03T20:09:51.757Z,97974.19
2023-01-03T20:12:25.282Z,97977.16
2023-01-03T20:14:55.184Z,97983.91
2023-01-03T20:17:25.140Z,97978.19
2023-01-03T20:19:53.607Z,97975.69
2023-01-03T20:23:02.379Z,97973.00
2023-01-03T20:25:24.465Z,97966.94
2023-01-03T20:27:52.934Z,97957.91
2023-01-03T20:30:23.689Z,97960.06
2023-01-03T20:32:51.594Z,97963.97
2023-01-03T20:36:09.531Z,97970.94
2023-01-03T20:38:12.483Z,97962.91
2023-01-03T20:40:40.247Z,97968.78
2023-01-03T20:43:13.979Z,97970.44
2023-01-03T20:45:41.666Z,97959.00
2023-01-03T20:48:20.894Z,97963.38
2023-01-03T20:50:52.485Z,97958.28
2023-01-03T20:53:22.723Z,97955.00
2023-01-03T20:55:51.561Z,97961.38
2023-01-03T20:58:21.048Z,97958.34
2023-01-03T21:00:49.196Z,97953.41
2023-01-03T21:03:17.123Z,97952.00
2023-01-03T21:05:44.822Z,97950.59
2023-01-03T21:08:34.137Z,97957.69
2023-01-03T21:11:02.963Z,97949.22
2023-01-03T21:13:30.463Z,97950.53
2023-01-03T21:15:58.291Z,97949.00
2023-01-03T21:18:25.841Z,97950.63
2023-01-03T21:20:53.346Z,97952.28
2023-01-03T21:23:23.128Z,97950.06
2023-01-03T21:25:51.121Z,97946.91
2023-01-03T21:28:19.912Z,97954.78
2023-01-03T21:30:47.403Z,97947.16
2023-01-03T21:33:17.815Z,97946.56
2023-01-03T21:35:46.137Z,97945.16
2023-01-03T21:38:13.757Z,97944.81
2023-01-03T21:40:41.256Z,97947.66
2023-01-03T21:43:10.899Z,97948.03
2023-01-03T21:45:41.899Z,97949.31
2023-01-03T21:48:12.521Z,97949.56
2023-01-03T21:50:42.232Z,97945.56
2023-01-03T21:53:13.381Z,97949.09
2023-01-03T21:55:41.092Z,97942.28
2023-01-03T21:58:08.593Z,97955.94
2023-01-03T22:00:36.099Z,97957.81
2023-01-03T22:03:22.708Z,97956.41
2023-01-03T22:05:50.223Z,97953.38
2023-01-03T22:08:17.726Z,97951.22
2023-01-03T22:10:44.284Z,97953.47
2023-01-03T22:13:12.351Z,97953.81
2023-01-03T22:15:40.537Z,97948.03
2023-01-03T22:18:13.016Z,97947.22
2023-01-03T22:20:40.545Z,97946.28
2023-01-03T22:23:08.388Z,97946.97
2023-01-03T22:25:35.904Z,97946.75
2023-01-03T22:28:03.503Z,97949.09
2023-01-03T22:30:31.390Z,97944.25
2023-01-03T22:32:58.922Z,97943.81
2023-01-03T22:35:27.762Z,97943.34
2023-01-03T22:37:56.837Z,97952.50
2023-01-03T22:40:24.345Z,97942.72
2023-01-03T22:42:51.895Z,97947.91
2023-01-03T22:45:19.564Z,97938.38
2023-01-03T22:47:47.062Z,97948.03
2023-01-03T22:50:14.562Z,97939.69
2023-01-03T22:52:43.438Z,97941.31
2023-01-03T22:55:11.633Z,97939.44
2023-01-03T22:57:39.160Z,97934.25
2023-01-03T23:00:10.419Z,97944.41
2023-01-03T23:02:41.905Z,97944.97
2023-01-03T23:05:10.185Z,97941.19
2023-01-03T23:07:39.323Z,97940.13
2023-01-03T23:10:10.211Z,97940.97
2023-01-03T23:12:56.018Z,97935.78
2023-01-03T23:15:23.718Z,97931.41
2023-01-03T23:17:57.217Z,97932.34
2023-01-03T23:20:28.984Z,97926.72
2023-01-03T23:22:59.939Z,97935.41
2023-01-03T23:25:29.446Z,97936.13
2023-01-03T23:27:57.960Z,97916.94
2023-01-03T23:30:26.011Z,97922.81
2023-01-03T23:32:53.740Z,97914.22
2023-01-03T23:35:21.215Z,97903.84
2023-01-03T23:37:49.100Z,97895.94
2023-01-03T23:40:16.807Z,97876.41
2023-01-03T23:42:45.635Z,97881.97
2023-01-03T23:45:13.388Z,97886.44
2023-01-03T23:47:40.904Z,97884.81
2023-01-03T23:50:08.871Z,97879.16
2023-01-03T23:52:36.349Z,97869.03
2023-01-03T23:55:11.941Z,97870.69
2023-01-03T23:57:40.212Z,97874.44
